Time;durP1;ratioP1;P1;durP2;ratioP2;P2;SDS_P1;SDS_P2;PMS_P1;PMS_P2;Temp;Humidity;BMP_temperature;BMP_pressure;BME280_temperature;BME280_humidity;BME280_pressure;Samples;Min_cycle;Max_cycle;Signal;HPM_P1;HPM_P2
2023/07/21 00:02:25;;;;;;;2.05;1.25;;;21.50;84.60;;;;;;5063213;28;20409;-50
2023/07/21 00:04:51;;;;;;;1.50;0.88;;;21.50;84.90;;;;;;5056797;28;20072;-48
2023/07/21 00:07:17;;;;;;;2.00;0.88;;;21.50;84.90;;;;;;5065603;28;20052;-46
2023/07/21 00:09:43;;;;;;;3.42;1.00;;;21.40;85.80;;;;;;5055810;28;20033;-48
2023/07/21 00:12:09;;;;;;;1.33;0.70;;;21.50;85.00;;;;;;5048249;28;20055;-53
2023/07/21 00:14:35;;;;;;;1.88;0.80;;;21.50;85.30;;;;;;5054262;28;20025;-44
2023/07/21 00:17:04;;;;;;;4.35;1.00;;;21.50;85.40;;;;;;5067685;28;20024;-50
2023/07/21 00:19:30;;;;;;;1.98;0.85;;;21.50;86.10;;;;;;5053407;28;20040;-50
2023/07/21 00:21:56;;;;;;;3.83;1.08;;;21.50;86.10;;;;;;5067457;28;20032;-46
2023/07/21 00:24:22;;;;;;;3.75;1.52;;;21.50;86.30;;;;;;5034806;28;20039;-47
2023/07/21 00:26:48;;;;;;;4.57;1.20;;;21.50;86.70;;;;;;5067944;28;20028;-49
2023/07/21 00:29:13;;;;;;;2.20;0.70;;;21.40;86.60;;;;;;5050386;28;20032;-48
2023/07/21 00:31:42;;;;;;;1.50;0.90;;;21.40;85.60;;;;;;5057126;28;20063;-49
2023/07/21 00:34:08;;;;;;;2.13;1.02;;;21.40;85.90;;;;;;5051819;28;20020;-50
2023/07/21 00:36:34;;;;;;;1.88;0.90;;;21.40;86.60;;;;;;5065770;28;20078;-49
2023/07/21 00:39:00;;;;;;;1.52;0.80;;;21.50;86.40;;;;;;5061021;28;20040;-49
2023/07/21 00:41:26;;;;;;;1.65;0.93;;;21.50;86.10;;;;;;5064447;28;20116;-48
2023/07/21 00:43:52;;;;;;;7.65;1.40;;;21.60;86.30;;;;;;5054681;28;20552;-50
2023/07/21 00:46:18;;;;;;;2.35;1.15;;;21.50;86.10;;;;;;5055132;28;20469;-48
2023/07/21 00:48:44;;;;;;;3.45;1.58;;;21.50;86.80;;;;;;5044992;28;20067;-52
2023/07/21 00:51:10;;;;;;;1.23;0.75;;;21.50;87.40;;;;;;5048104;28;20028;-52
2023/07/21 00:53:36;;;;;;;1.17;0.70;;;21.40;88.50;;;;;;5032173;28;20028;-45
2023/07/21 00:56:04;;;;;;;3.00;1.33;;;21.40;89.00;;;;;;5033533;28;20051;-47
2023/07/21 00:58:30;;;;;;;1.38;0.85;;;21.40;89.90;;;;;;5038483;28;20103;-43
2023/07/21 01:00:56;;;;;;;1.90;1.10;;;21.30;90.10;;;;;;5063029;28;20028;-48
2023/07/21 01:03:22;;;;;;;2.72;1.30;;;21.30;90.50;;;;;;5054139;28;20052;-49
2023/07/21 01:05:53;;;;;;;1.90;0.93;;;21.10;91.10;;;;;;5040133;28;20053;-50
2023/07/21 01:08:20;;;;;;;4.50;1.63;;;21.10;91.40;;;;;;5031777;28;20055;-49
2023/07/21 01:10:47;;;;;;;3.05;1.00;;;21.10;91.60;;;;;;5031889;28;20064;-51
2023/07/21 01:13:14;;;;;;;2.63;1.17;;;21.00;91.90;;;;;;5026464;28;20028;-46
2023/07/21 01:15:47;;;;;;;2.28;0.88;;;21.00;92.60;;;;;;5063065;28;20444;-48
2023/07/21 01:18:16;;;;;;;2.28;1.13;;;20.90;92.60;;;;;;5044983;28;20023;-48
2023/07/21 01:20:43;;;;;;;3.55;0.88;;;21.00;92.60;;;;;;5044940;28;20028;-51
2023/07/21 01:23:56;;;;;;;2.88;1.20;;;21.00;92.70;;;;;;5041846;28;20029;-51
2023/07/21 01:26:23;;;;;;;2.65;1.17;;;20.90;92.80;;;;;;5055724;28;20027;-51
2023/07/21 01:28:49;;;;;;;3.10;1.20;;;20.90;92.90;;;;;;5040020;28;20036;-51
2023/07/21 01:31:19;;;;;;;1.83;1.00;;;20.90;93.10;;;;;;5044194;28;20024;-47
2023/07/21 01:33:46;;;;;;;2.95;1.23;;;20.80;93.40;;;;;;5053940;28;20037;-52
2023/07/21 01:36:12;;;;;;;2.30;0.98;;;20.80;93.60;;;;;;5044593;28;20043;-50
2023/07/21 01:38:39;;;;;;;3.08;0.88;;;20.80;93.70;;;;;;5044152;28;20040;-49
2023/07/21 01:41:06;;;;;;;2.92;1.15;;;20.70;94.10;;;;;;5035291;28;20033;-46
2023/07/21 01:43:33;;;;;;;4.63;1.30;;;20.60;94.00;;;;;;5037423;28;20040;-47
2023/07/21 01:45:58;;;;;;;3.65;1.50;;;20.60;94.30;;;;;;5044428;28;20116;-48
2023/07/21 01:48:24;;;;;;;4.00;1.77;;;20.50;94.30;;;;;;5060695;28;20111;-48
2023/07/21 01:50:55;;;;;;;1.85;1.05;;;20.50;94.50;;;;;;5061888;28;20072;-49
2023/07/21 01:53:28;;;;;;;3.23;1.50;;;20.60;94.50;;;;;;5053295;28;20017;-52
2023/07/21 01:56:06;;;;;;;2.05;1.05;;;20.60;94.60;;;;;;5044555;28;20367;-53
2023/07/21 01:58:33;;;;;;;3.95;1.38;;;20.60;94.60;;;;;;5044481;28;20028;-53
2023/07/21 02:01:02;;;;;;;3.78;2.05;;;20.60;94.80;;;;;;5044333;28;20050;-50
2023/07/21 02:03:28;;;;;;;3.13;1.40;;;20.60;94.90;;;;;;5043192;28;20116;-50
2023/07/21 02:05:54;;;;;;;4.25;1.25;;;20.50;95.00;;;;;;5044361;28;20025;-49
2023/07/21 02:08:21;;;;;;;6.00;1.20;;;20.50;95.20;;;;;;5053617;28;20070;-49
2023/07/21 02:10:47;;;;;;;10.05;1.20;;;20.50;95.40;;;;;;5044324;28;20021;-50
2023/07/21 02:13:15;;;;;;;2.67;1.40;;;20.60;95.60;;;;;;5043151;28;20028;-52
2023/07/21 02:15:41;;;;;;;1.77;0.95;;;20.50;95.80;;;;;;5062080;28;20438;-47
2023/07/21 02:18:07;;;;;;;2.20;0.98;;;20.50;96.10;;;;;;5053703;28;20475;-45
2023/07/21 02:20:35;;;;;;;2.97;1.25;;;20.40;96.10;;;;;;5061716;28;20630;-46
2023/07/21 02:23:01;;;;;;;2.10;1.13;;;20.40;96.10;;;;;;5053283;28;20041;-46
2023/07/21 02:25:27;;;;;;;2.55;0.93;;;20.50;96.30;;;;;;5061789;28;20074;-45
2023/07/21 02:27:52;;;;;;;1.92;1.23;;;20.40;96.50;;;;;;5060269;28;20041;-46
2023/07/21 02:30:18;;;;;;;1.60;0.80;;;20.30;96.80;;;;;;5062063;28;20032;-44
2023/07/21 02:32:44;;;;;;;2.28;1.17;;;20.30;97.00;;;;;;5055125;28;20655;-45
2023/07/21 02:35:10;;;;;;;1.75;1.08;;;20.30;97.10;;;;;;5058683;28;20427;-46
2023/07/21 02:37:38;;;;;;;3.33;1.65;;;20.30;97.00;;;;;;5062578;28;20519;-45
2023/07/21 02:40:06;;;;;;;2.83;1.23;;;20.20;97.10;;;;;;5060039;28;20071;-48
2023/07/21 02:42:32;;;;;;;2.08;0.90;;;20.20;96.90;;;;;;5052004;28;20108;-50
2023/07/21 02:44:58;;;;;;;5.68;1.13;;;20.30;97.00;;;;;;5053393;28;20783;-47
2023/07/21 02:47:24;;;;;;;2.97;1.10;;;20.30;96.90;;;;;;5057943;28;20021;-50
2023/07/21 02:49:49;;;;;;;2.55;1.08;;;20.30;96.80;;;;;;5058058;28;20037;-46
2023/07/21 02:52:15;;;;;;;2.88;1.33;;;20.30;97.20;;;;;;5069106;28;20064;-48
2023/07/21 02:54:41;;;;;;;1.25;0.85;;;20.30;97.10;;;;;;5061296;28;20118;-45
2023/07/21 02:57:07;;;;;;;2.03;1.30;;;20.30;97.10;;;;;;5068175;28;20035;-46
2023/07/21 02:59:34;;;;;;;2.83;1.48;;;20.30;97.10;;;;;;5055739;28;20439;-46
2023/07/21 03:02:00;;;;;;;1.73;0.93;;;20.20;97.50;;;;;;5068644;28;20032;-52
2023/07/21 03:04:26;;;;;;;2.60;1.02;;;20.10;98.40;;;;;;5042109;28;20378;-50
2023/07/21 03:06:52;;;;;;;4.53;0.88;;;20.10;98.80;;;;;;5050365;28;20029;-46
2023/07/21 03:09:18;;;;;;;2.80;0.82;;;20.00;99.90;;;;;;5042209;28;20052;-50
2023/07/21 03:11:44;;;;;;;2.50;0.98;;;20.10;99.90;;;;;;5068174;28;20082;-46
2023/07/21 03:14:10;;;;;;;1.52;1.10;;;20.10;99.60;;;;;;5053039;28;20028;-46
2023/07/21 03:16:36;;;;;;;2.72;1.30;;;20.20;99.60;;;;;;5049492;28;20440;-47
2023/07/21 03:19:02;;;;;;;3.50;1.10;;;20.20;99.20;;;;;;5045118;28;20036;-51
2023/07/21 03:21:28;;;;;;;2.55;0.98;;;20.10;99.80;;;;;;5066386;28;20131;-48
2023/07/21 03:23:55;;;;;;;3.20;1.10;;;20.10;99.50;;;;;;5055989;28;20033;-43
2023/07/21 03:26:21;;;;;;;2.20;1.40;;;20.20;99.80;;;;;;5065281;28;20028;-47
2023/07/21 03:28:48;;;;;;;1.77;1.10;;;20.20;99.90;;;;;;5056394;28;20040;-50
2023/07/21 03:31:14;;;;;;;2.03;1.17;;;20.10;99.90;;;;;;5064813;28;20033;-52
2023/07/21 03:33:39;;;;;;;2.35;1.15;;;20.30;99.90;;;;;;5052824;28;20069;-52
2023/07/21 03:36:05;;;;;;;2.22;1.10;;;20.00;99.90;;;;;;5061274;28;20036;-50
2023/07/21 03:38:35;;;;;;;3.20;1.77;;;19.80;99.90;;;;;;5050033;28;20032;-51
2023/07/21 03:41:07;;;;;;;2.15;1.30;;;19.70;99.90;;;;;;5064402;28;20036;-53
2023/07/21 03:43:34;;;;;;;2.08;1.08;;;19.80;99.90;;;;;;5045710;28;20098;-54
2023/07/21 03:46:02;;;;;;;3.72;1.42;;;19.90;99.90;;;;;;5064599;28;20097;-48
2023/07/21 03:48:29;;;;;;;4.05;1.45;;;19.80;99.90;;;;;;5045642;28;20089;-52
2023/07/21 03:51:00;;;;;;;4.20;1.52;;;19.80;99.90;;;;;;5064381;28;20021;-49
2023/07/21 03:53:27;;;;;;;2.03;1.08;;;19.90;99.90;;;;;;5045084;28;20029;-44
2023/07/21 03:55:54;;;;;;;2.42;1.38;;;20.00;99.90;;;;;;5046475;28;20033;-49
2023/07/21 03:58:21;;;;;;;3.28;1.40;;;20.00;99.90;;;;;;5045570;28;20024;-50
2023/07/21 04:00:47;;;;;;;3.97;1.60;;;20.10;99.90;;;;;;5064457;28;20043;-49
2023/07/21 04:03:14;;;;;;;3.05;1.67;;;20.20;99.90;;;;;;5055652;28;20047;-45
2023/07/21 04:05:40;;;;;;;3.33;1.75;;;20.10;99.90;;;;;;5036594;22;20049;-49
2023/07/21 04:08:06;;;;;;;5.13;1.73;;;20.00;99.90;;;;;;5019691;28;20026;-49
2023/07/21 04:10:32;;;;;;;2.92;1.40;;;19.90;99.90;;;;;;5021994;28;20061;-48
2023/07/21 04:12:58;;;;;;;2.90;1.80;;;19.90;99.90;;;;;;5014402;28;20026;-48
2023/07/21 04:15:26;;;;;;;2.25;1.33;;;19.80;99.90;;;;;;5009860;28;20081;-48
2023/07/21 04:17:53;;;;;;;5.20;2.30;;;19.50;99.90;;;;;;5007974;28;20079;-50
2023/07/21 04:20:19;;;;;;;3.55;1.95;;;19.30;99.90;;;;;;5009186;28;20032;-46
2023/07/21 04:22:45;;;;;;;3.47;2.15;;;19.20;99.90;;;;;;4975318;28;20059;-44
2023/07/21 04:25:11;;;;;;;7.00;2.72;;;19.00;99.90;;;;;;5030233;28;20144;-47
2023/07/21 04:27:38;;;;;;;4.55;2.35;;;18.90;99.90;;;;;;5026441;28;20034;-45
2023/07/21 04:30:05;;;;;;;7.88;3.00;;;18.70;99.90;;;;;;5025990;28;20041;-46
2023/07/21 04:32:31;;;;;;;9.35;3.22;;;18.60;99.90;;;;;;5007533;28;20113;-46
2023/07/21 04:34:57;;;;;;;3.10;2.08;;;18.60;99.90;;;;;;5026925;28;20112;-45
2023/07/21 04:37:23;;;;;;;5.70;2.42;;;18.60;99.90;;;;;;5007302;28;20080;-42
2023/07/21 04:39:49;;;;;;;3.53;2.08;;;18.60;99.90;;;;;;5007878;28;20045;-51
2023/07/21 04:42:14;;;;;;;4.03;1.88;;;18.60;99.90;;;;;;5003919;28;20061;-46
2023/07/21 04:44:40;;;;;;;5.20;2.42;;;18.80;99.90;;;;;;5007844;28;20025;-50
2023/07/21 04:47:06;;;;;;;23.88;11.93;;;18.90;99.90;;;;;;5034821;28;20480;-51
2023/07/21 04:49:32;;;;;;;7.30;3.33;;;18.90;99.90;;;;;;5027412;28;20033;-48
2023/07/21 04:51:58;;;;;;;16.08;8.52;;;18.80;99.90;;;;;;5009599;28;20036;-42
2023/07/21 04:54:27;;;;;;;29.95;11.25;;;18.80;99.90;;;;;;5013263;28;20030;-46
2023/07/21 04:56:53;;;;;;;9.90;3.17;;;18.80;99.90;;;;;;5009964;28;20052;-50
2023/07/21 04:59:19;;;;;;;17.23;2.75;;;18.90;99.90;;;;;;5014298;28;20037;-51
2023/07/21 05:01:46;;;;;;;8.43;2.75;;;18.90;99.90;;;;;;5022882;28;20040;-49
2023/07/21 05:04:14;;;;;;;6.20;4.22;;;18.90;99.90;;;;;;5026530;28;20087;-53
2023/07/21 05:06:43;;;;;;;6.30;2.78;;;18.90;99.90;;;;;;5021738;28;20373;-51
2023/07/21 05:09:10;;;;;;;4.60;2.67;;;18.80;99.90;;;;;;5017773;28;20481;-54
2023/07/21 05:11:36;;;;;;;8.13;3.35;;;18.30;99.90;;;;;;5022855;28;20021;-52
2023/07/21 05:14:03;;;;;;;5.13;3.42;;;18.30;99.90;;;;;;5003737;28;20030;-51
2023/07/21 05:16:29;;;;;;;6.70;3.47;;;18.40;99.90;;;;;;5019811;28;20021;-52
2023/07/21 05:18:55;;;;;;;7.03;3.60;;;18.60;99.90;;;;;;5010502;28;20034;-54
2023/07/21 05:21:21;;;;;;;5.57;3.50;;;18.60;99.90;;;;;;5022072;28;20025;-52
2023/07/21 05:23:47;;;;;;;4.50;2.53;;;18.40;99.90;;;;;;5026931;28;20049;-51
2023/07/21 05:26:12;;;;;;;5.43;3.33;;;18.30;99.90;;;;;;5021519;28;20044;-52
2023/07/21 05:28:38;;;;;;;9.02;3.70;;;18.40;99.90;;;;;;5028432;28;20041;-52
2023/07/21 05:31:06;;;;;;;8.13;2.90;;;18.50;99.90;;;;;;5020431;28;20032;-50
2023/07/21 05:33:32;;;;;;;4.63;2.97;;;18.70;99.90;;;;;;5012280;28;20033;-50
2023/07/21 05:36:07;;;;;;;5.20;2.67;;;18.70;99.90;;;;;;5019094;28;20025;-54
2023/07/21 05:38:34;;;;;;;7.70;3.38;;;18.70;99.90;;;;;;5020370;28;20124;-53
2023/07/21 05:41:01;;;;;;;6.70;3.22;;;18.80;99.90;;;;;;5019699;28;20033;-46
2023/07/21 05:43:26;;;;;;;8.13;3.03;;;19.00;99.90;;;;;;5030257;28;20021;-54
2023/07/21 05:45:52;;;;;;;6.93;3.20;;;19.20;99.90;;;;;;5018132;28;20038;-53
2023/07/21 05:48:18;;;;;;;6.43;3.30;;;19.40;99.90;;;;;;5012576;28;20772;-52
2023/07/21 05:50:44;;;;;;;5.13;2.78;;;19.40;99.90;;;;;;5018555;28;20125;-53
2023/07/21 05:53:10;;;;;;;5.32;2.78;;;19.50;99.90;;;;;;5029106;28;20044;-53
2023/07/21 05:55:36;;;;;;;6.45;3.50;;;19.60;99.90;;;;;;5020614;28;20030;-54
2023/07/21 05:58:02;;;;;;;5.68;3.13;;;19.40;99.90;;;;;;5028319;28;20495;-47
2023/07/21 06:00:28;;;;;;;6.65;2.55;;;19.40;99.90;;;;;;5021095;28;20108;-47
2023/07/21 06:02:54;;;;;;;4.70;3.08;;;19.40;99.90;;;;;;5010316;28;20040;-52
2023/07/21 06:05:20;;;;;;;4.32;2.80;;;19.60;99.90;;;;;;5017487;28;20056;-49
2023/07/21 06:07:46;;;;;;;7.78;3.83;;;19.30;99.90;;;;;;5022945;28;20029;-49
2023/07/21 06:10:12;;;;;;;15.52;3.08;;;19.10;99.90;;;;;;5017717;28;20037;-48
2023/07/21 06:12:38;;;;;;;5.10;2.67;;;19.30;99.90;;;;;;5007220;28;20025;-47
2023/07/21 06:15:08;;;;;;;7.05;3.03;;;19.30;99.90;;;;;;5015470;28;20029;-49
2023/07/21 06:17:33;;;;;;;5.05;2.53;;;19.60;99.90;;;;;;4997348;28;20026;-51
2023/07/21 06:20:00;;;;;;;7.43;3.42;;;19.90;99.90;;;;;;5012826;28;20517;-54
2023/07/21 06:22:26;;;;;;;7.03;3.30;;;19.90;99.90;;;;;;5010954;28;20034;-53
2023/07/21 06:24:52;;;;;;;21.73;3.83;;;19.80;99.90;;;;;;4997499;28;20490;-62
2023/07/21 06:27:18;;;;;;;5.50;2.78;;;20.00;99.90;;;;;;5022634;28;20052;-51
2023/07/21 06:29:44;;;;;;;4.70;2.53;;;20.00;99.90;;;;;;5020407;28;20033;-53
2023/07/21 06:32:10;;;;;;;7.88;2.92;;;20.20;99.90;;;;;;5008058;28;20029;-53
2023/07/21 06:34:36;;;;;;;4.53;2.47;;;20.40;99.90;;;;;;5029603;28;20029;-49
2023/07/21 06:37:02;;;;;;;4.43;2.22;;;20.00;99.90;;;;;;5008446;28;20107;-51
2023/07/21 06:39:28;;;;;;;3.72;2.13;;;20.40;99.90;;;;;;5003284;28;20029;-53
2023/07/21 06:41:54;;;;;;;4.93;2.05;;;20.20;99.90;;;;;;5025188;28;20033;-53
2023/07/21 06:44:20;;;;;;;6.10;2.58;;;20.30;99.90;;;;;;4993400;28;20034;-50
2023/07/21 06:46:49;;;;;;;4.70;2.70;;;20.60;99.90;;;;;;5021271;28;20465;-51
2023/07/21 06:49:15;;;;;;;3.05;2.08;;;20.90;99.90;;;;;;5015711;28;20073;-49
2023/07/21 06:51:42;;;;;;;4.10;2.20;;;21.10;99.90;;;;;;5009123;28;20492;-53
2023/07/21 06:54:08;;;;;;;4.38;2.35;;;21.30;99.90;;;;;;5021584;28;20030;-48
2023/07/21 06:56:34;;;;;;;3.40;2.00;;;21.60;99.90;;;;;;5019225;28;20384;-50
2023/07/21 06:59:00;;;;;;;3.88;2.47;;;21.60;99.90;;;;;;5012400;28;20111;-71
2023/07/21 07:01:26;;;;;;;4.88;2.42;;;21.60;99.90;;;;;;5007572;28;20477;-63
2023/07/21 07:03:52;;;;;;;2.63;1.90;;;21.70;99.90;;;;;;5029344;28;20117;-64
2023/07/21 07:06:18;;;;;;;2.50;1.65;;;21.80;99.90;;;;;;5013639;28;20480;-64
2023/07/21 07:08:44;;;;;;;4.10;1.85;;;21.70;99.90;;;;;;5012698;28;20034;-63
2023/07/21 07:11:11;;;;;;;3.78;1.98;;;21.20;99.90;;;;;;5024023;28;20367;-64
2023/07/21 07:13:38;;;;;;;5.78;2.58;;;21.30;99.90;;;;;;5030940;28;20065;-64
2023/07/21 07:16:04;;;;;;;6.63;2.72;;;21.20;99.90;;;;;;5005652;28;20040;-64
2023/07/21 07:18:29;;;;;;;5.75;1.92;;;21.00;99.90;;;;;;5033211;28;20079;-64
2023/07/21 07:20:56;;;;;;;5.70;2.95;;;21.20;99.90;;;;;;5017826;28;20038;-64
2023/07/21 07:23:23;;;;;;;7.68;3.50;;;21.10;99.90;;;;;;5019276;28;20025;-64
2023/07/21 07:25:52;;;;;;;5.63;2.80;;;20.90;99.90;;;;;;5015129;28;20033;-64
2023/07/21 07:28:19;;;;;;;9.93;3.13;;;20.90;99.90;;;;;;5000593;28;20038;-64
2023/07/21 07:30:47;;;;;;;4.55;2.72;;;21.00;99.90;;;;;;4993214;28;20045;-64
2023/07/21 07:33:16;;;;;;;6.10;3.05;;;21.10;99.90;;;;;;4995540;28;20448;-63
2023/07/21 07:35:53;;;;;;;5.97;3.53;;;21.10;99.90;;;;;;5003614;28;20026;-64
2023/07/21 07:38:27;;;;;;;5.68;3.55;;;21.10;99.90;;;;;;4995766;28;20401;-63
2023/07/21 07:40:53;;;;;;;6.63;3.20;;;21.20;99.90;;;;;;5020368;28;20395;-63
2023/07/21 07:43:19;;;;;;;6.70;3.33;;;21.00;99.90;;;;;;5015151;28;20739;-63
2023/07/21 07:45:45;;;;;;;9.50;3.03;;;21.40;99.90;;;;;;5003737;28;20033;-63
2023/07/21 07:48:11;;;;;;;6.05;3.17;;;21.30;99.90;;;;;;5032135;28;20392;-63
2023/07/21 07:50:41;;;;;;;5.75;3.13;;;21.40;99.90;;;;;;5022482;28;20034;-63
2023/07/21 07:53:08;;;;;;;5.50;3.45;;;21.10;99.90;;;;;;5013731;28;20048;-63
2023/07/21 07:55:42;;;;;;;7.57;3.10;;;21.20;99.90;;;;;;5005305;28;20501;-63
2023/07/21 07:58:09;;;;;;;5.93;3.03;;;21.60;99.90;;;;;;5031460;28;20044;-64
2023/07/21 08:00:37;;;;;;;8.02;3.80;;;21.60;99.90;;;;;;5022795;28;20033;-64
2023/07/21 08:03:05;;;;;;;5.95;3.13;;;21.90;99.90;;;;;;5013267;28;20037;-64
2023/07/21 08:05:41;;;;;;;5.90;3.05;;;22.00;99.90;;;;;;5005730;28;20036;-64
2023/07/21 08:08:09;;;;;;;6.70;3.63;;;22.20;99.90;;;;;;5025124;28;20034;-64
2023/07/21 08:10:35;;;;;;;6.45;3.47;;;22.30;99.90;;;;;;5019845;28;20030;-62
2023/07/21 08:13:06;;;;;;;8.32;3.53;;;22.60;99.90;;;;;;5009809;28;20022;-61
2023/07/21 08:15:32;;;;;;;5.45;2.85;;;22.30;99.90;;;;;;5016619;28;20026;-62
2023/07/21 08:17:57;;;;;;;8.35;3.42;;;22.50;99.90;;;;;;5029709;28;20034;-62
2023/07/21 08:20:24;;;;;;;10.48;3.08;;;22.70;99.90;;;;;;5023539;28;20105;-62
2023/07/21 08:22:50;;;;;;;7.40;2.38;;;23.10;99.90;;;;;;5011990;28;20469;-62
2023/07/21 08:25:18;;;;;;;9.07;3.88;;;23.10;99.90;;;;;;5003525;28;20104;-62
2023/07/21 08:27:44;;;;;;;4.78;3.00;;;23.20;99.90;;;;;;5027414;28;20128;-63
2023/07/21 08:30:12;;;;;;;5.72;2.67;;;23.50;99.90;;;;;;5007687;28;20036;-63
2023/07/21 08:32:43;;;;;;;5.30;2.70;;;23.40;99.90;;;;;;5026348;28;20362;-64
2023/07/21 08:35:10;;;;;;;8.98;1.98;;;23.50;98.60;;;;;;5025729;28;20030;-63
2023/07/21 08:37:36;;;;;;;6.28;1.70;;;23.30;97.40;;;;;;5024510;28;20030;-63
2023/07/21 08:40:03;;;;;;;4.10;2.05;;;23.20;97.20;;;;;;5001682;28;20095;-63
2023/07/21 08:42:33;;;;;;;4.15;2.35;;;23.10;97.20;;;;;;5025065;28;20128;-63
2023/07/21 08:45:00;;;;;;;4.28;2.05;;;23.20;97.80;;;;;;5026938;28;20033;-64
2023/07/21 08:47:25;;;;;;;3.78;2.00;;;23.30;97.80;;;;;;5007056;28;20034;-64
2023/07/21 08:49:51;;;;;;;3.58;2.30;;;23.50;97.90;;;;;;5009889;28;20033;-64
2023/07/21 08:52:17;;;;;;;3.67;2.00;;;23.80;96.80;;;;;;5022962;28;20033;-64
2023/07/21 08:54:43;;;;;;;3.00;1.27;;;23.90;96.90;;;;;;5026815;28;20079;-64
2023/07/21 08:57:13;;;;;;;4.22;1.85;;;24.10;95.00;;;;;;5005720;28;20485;-64
2023/07/21 08:59:39;;;;;;;2.45;1.52;;;24.10;94.50;;;;;;5026989;28;20025;-63
2023/07/21 09:02:06;;;;;;;2.20;1.17;;;23.90;93.80;;;;;;5005776;28;20060;-64
2023/07/21 09:04:31;;;;;;;3.45;1.13;;;23.80;93.80;;;;;;5009858;28;20029;-64
2023/07/21 09:06:59;;;;;;;2.05;0.90;;;23.70;94.70;;;;;;5005685;28;20183;-64
2023/07/21 09:09:30;;;;;;;2.67;1.20;;;23.80;94.60;;;;;;4970232;28;20033;-64
2023/07/21 09:12:07;;;;;;;2.17;0.88;;;23.80;94.20;;;;;;5006553;28;20026;-64
2023/07/21 09:14:44;;;;;;;4.55;1.10;;;23.90;93.70;;;;;;4990974;28;20485;-64
2023/07/21 09:17:12;;;;;;;9.50;1.60;;;24.00;93.80;;;;;;4995799;28;20378;-61
2023/07/21 09:19:45;;;;;;;1.50;0.95;;;23.80;93.60;;;;;;5015543;28;20110;-63
2023/07/21 09:22:11;;;;;;;2.83;0.85;;;23.90;93.10;;;;;;5001412;28;20095;-63
2023/07/21 09:24:49;;;;;;;1.85;1.23;;;23.90;93.50;;;;;;4999331;28;20045;-63
2023/07/21 09:27:18;;;;;;;3.88;1.35;;;23.80;93.70;;;;;;5004952;28;20037;-64
2023/07/21 09:29:45;;;;;;;3.40;1.30;;;23.70;93.80;;;;;;5009459;28;20106;-64
2023/07/21 09:32:19;;;;;;;3.88;1.65;;;23.70;94.10;;;;;;5004921;28;20025;-63
2023/07/21 09:35:00;;;;;;;2.78;1.10;;;23.70;94.20;;;;;;5009104;28;20477;-62
2023/07/21 09:37:32;;;;;;;1.42;1.00;;;23.90;94.10;;;;;;4987670;28;20037;-63
2023/07/21 09:40:09;;;;;;;5.03;1.38;;;23.90;93.60;;;;;;5001014;28;20485;-63
2023/07/21 09:42:37;;;;;;;4.97;1.33;;;24.10;94.30;;;;;;5024713;28;20132;-63
2023/07/21 09:45:04;;;;;;;2.03;0.88;;;24.50;92.90;;;;;;5024781;28;20031;-64
2023/07/21 09:47:30;;;;;;;3.75;0.82;;;24.70;92.60;;;;;;5006626;28;20425;-63
2023/07/21 09:49:58;;;;;;;1.77;0.85;;;24.30;91.70;;;;;;5008369;28;20029;-63
2023/07/21 09:52:27;;;;;;;2.65;0.85;;;24.50;92.20;;;;;;5005271;28;20030;-63
2023/07/21 09:55:10;;;;;;;2.90;1.10;;;24.60;91.40;;;;;;5025635;28;20053;-63
2023/07/21 09:57:47;;;;;;;1.95;0.80;;;24.30;91.50;;;;;;5024484;28;20508;-64
2023/07/21 10:00:16;;;;;;;2.35;0.90;;;24.40;91.50;;;;;;5013783;28;20516;-63
2023/07/21 10:02:52;;;;;;;1.48;0.90;;;24.20;91.30;;;;;;5017312;28;20056;-63
2023/07/21 10:05:18;;;;;;;4.88;1.10;;;24.30;92.00;;;;;;4994601;23;20402;-73
2023/07/21 10:07:50;;;;;;;3.17;1.00;;;24.30;92.00;;;;;;5009401;28;20453;-72
2023/07/21 10:10:17;;;;;;;3.08;0.93;;;24.10;91.60;;;;;;5020232;28;20062;-72
2023/07/21 10:12:51;;;;;;;2.50;1.13;;;24.20;92.20;;;;;;5010219;28;20473;-72
2023/07/21 10:15:31;;;;;;;4.25;1.20;;;24.30;92.00;;;;;;5001265;28;20034;-73
2023/07/21 10:18:02;;;;;;;2.28;1.27;;;23.70;92.70;;;;;;5004192;28;20034;-73
2023/07/21 10:20:51;;;;;;;2.03;1.00;;;23.70;92.70;;;;;;5007540;28;20470;-72
2023/07/21 10:23:38;;;;;;;3.95;1.25;;;24.10;92.40;;;;;;5004504;28;20037;-72
2023/07/21 10:26:07;;;;;;;2.10;0.93;;;24.40;92.20;;;;;;5006681;28;20030;-72
2023/07/21 10:28:43;;;;;;;2.20;1.05;;;24.60;91.40;;;;;;5010101;28;20033;-72
2023/07/21 10:31:21;;;;;;;4.35;1.20;;;24.30;91.30;;;;;;5004163;28;20077;-72
2023/07/21 10:34:15;;;;;;;2.45;0.88;;;24.40;91.30;;;;;;5009253;28;20121;-72
2023/07/21 10:36:52;;;;;;;4.50;1.30;;;24.50;90.70;;;;;;5005533;28;20585;-72
2023/07/21 10:39:22;;;;;;;2.53;1.13;;;24.10;90.90;;;;;;5005356;28;20104;-72
2023/07/21 10:41:59;;;;;;;3.63;0.90;;;24.10;91.50;;;;;;5002897;28;20034;-70
2023/07/21 10:44:49;;;;;;;2.92;0.80;;;24.50;91.00;;;;;;5001265;28;20157;-73
2023/07/21 10:47:21;;;;;;;7.00;1.40;;;25.00;89.60;;;;;;4999231;28;20069;-70
2023/07/21 10:49:48;;;;;;;2.15;0.85;;;24.90;90.30;;;;;;5008892;28;20041;-73
2023/07/21 10:52:15;;;;;;;1.65;0.93;;;24.50;88.70;;;;;;4998091;28;20104;-73
2023/07/21 10:54:41;;;;;;;1.75;0.70;;;24.50;88.80;;;;;;5003916;28;20046;-73
2023/07/21 10:57:08;;;;;;;1.75;0.90;;;24.20;88.60;;;;;;5000102;28;20479;-73
2023/07/21 10:59:36;;;;;;;4.78;2.30;;;24.20;89.60;;;;;;5004137;28;20547;-72
2023/07/21 11:02:06;;;;;;;1.02;0.68;;;24.50;89.90;;;;;;5000705;28;20034;-72
2023/07/21 11:04:32;;;;;;;;;;;24.20;88.10;;;;;;5006210;28;20134;-71
2023/07/21 11:07:00;;;;;;;3.10;1.10;;;24.60;87.50;;;;;;5004980;28;20326;-72
2023/07/21 11:09:28;;;;;;;3.28;1.10;;;24.70;85.90;;;;;;5012881;28;20064;-70
2023/07/21 11:11:56;;;;;;;1.48;0.80;;;24.70;85.20;;;;;;5005756;28;20030;-70
2023/07/21 11:14:25;;;;;;;1.33;0.60;;;24.80;84.50;;;;;;4996930;28;20034;-70
2023/07/21 11:16:52;;;;;;;1.48;0.60;;;24.90;84.50;;;;;;5004437;28;20109;-70
2023/07/21 11:19:20;;;;;;;2.03;0.82;;;24.70;84.80;;;;;;5004032;28;20022;-71
2023/07/21 11:21:46;;;;;;;1.33;0.60;;;24.60;84.80;;;;;;4988983;28;20037;-71
2023/07/21 11:24:20;;;;;;;3.55;0.77;;;24.10;86.10;;;;;;5002519;28;20029;-70
2023/07/21 11:26:47;;;;;;;1.52;0.65;;;23.50;86.40;;;;;;5005705;28;20030;-70
2023/07/21 11:29:14;;;;;;;1.83;0.90;;;23.50;86.70;;;;;;5000455;28;20127;-70
2023/07/21 11:31:40;;;;;;;3.33;0.80;;;23.60;86.10;;;;;;5008494;28;20041;-70
2023/07/21 11:34:28;;;;;;;2.60;0.82;;;23.50;84.60;;;;;;4986223;28;20037;-72
2023/07/21 11:36:57;;;;;;;1.23;0.70;;;23.40;85.40;;;;;;5022479;28;20029;-74
2023/07/21 11:39:27;;;;;;;1.13;0.57;;;23.10;85.10;;;;;;5018751;28;20026;-73
2023/07/21 11:41:57;;;;;;;3.53;1.63;;;23.10;85.50;;;;;;5006091;28;20121;-72
2023/07/21 11:44:30;;;;;;;3.33;0.63;;;23.10;85.10;;;;;;5010997;28;20030;-74
2023/07/21 11:47:04;;;;;;;1.08;0.50;;;22.90;85.30;;;;;;5003091;28;20039;-74
2023/07/21 11:49:32;;;;;;;1.42;0.75;;;23.10;85.40;;;;;;5007239;28;20447;-72
2023/07/21 11:52:04;;;;;;;2.10;0.60;;;23.20;85.30;;;;;;5005609;28;20437;-74
2023/07/21 11:54:40;;;;;;;1.10;0.60;;;23.00;84.50;;;;;;5007387;28;20389;-72
2023/07/21 11:57:07;;;;;;;2.13;0.73;;;23.00;84.50;;;;;;5008770;28;20026;-72
2023/07/21 11:59:33;;;;;;;1.52;0.80;;;23.00;84.00;;;;;;5010243;28;20108;-73
2023/07/21 12:02:02;;;;;;;1.58;0.73;;;22.80;85.00;;;;;;5008891;28;20125;-72
2023/07/21 12:04:28;;;;;;;2.85;0.80;;;22.80;85.30;;;;;;5009260;28;20030;-71
2023/07/21 12:06:54;;;;;;;2.75;0.77;;;23.00;85.80;;;;;;5009272;28;20111;-70
2023/07/21 12:09:19;;;;;;;1.10;0.90;;;23.10;85.60;;;;;;5011879;28;20449;-70
2023/07/21 12:11:47;;;;;;;7.60;0.65;;;23.10;85.10;;;;;;5003796;28;20093;-70
2023/07/21 12:14:13;;;;;;;1.10;0.55;;;23.20;85.00;;;;;;5006536;28;20402;-71
2023/07/21 12:16:39;;;;;;;1.60;0.73;;;23.00;85.40;;;;;;5009291;28;20038;-72
2023/07/21 12:19:06;;;;;;;1.30;0.40;;;23.00;85.50;;;;;;5009195;28;20030;-73
2023/07/21 12:21:34;;;;;;;1.20;0.65;;;22.70;86.60;;;;;;5009910;28;20124;-72
2023/07/21 12:24:00;;;;;;;1.52;0.70;;;22.80;86.90;;;;;;5011818;28;20054;-72
2023/07/21 12:26:26;;;;;;;0.65;0.47;;;22.80;83.90;;;;;;5009033;28;20030;-72
2023/07/21 12:28:52;;;;;;;1.48;0.50;;;22.70;85.00;;;;;;5010125;28;20049;-71
2023/07/21 12:31:18;;;;;;;1.08;0.70;;;22.50;83.90;;;;;;5008794;28;20030;-71
2023/07/21 12:33:45;;;;;;;1.50;0.80;;;22.50;82.30;;;;;;4979434;28;20058;-72
2023/07/21 12:36:12;;;;;;;1.27;0.60;;;22.30;82.50;;;;;;5001166;28;20031;-72
2023/07/21 12:38:38;;;;;;;6.72;0.55;;;22.40;83.50;;;;;;5010176;28;20063;-71
2023/07/21 12:41:04;;;;;;;2.90;0.65;;;22.30;84.00;;;;;;5023278;28;20080;-71
2023/07/21 12:43:30;;;;;;;1.40;0.60;;;22.30;84.50;;;;;;5009147;28;20474;-70
2023/07/21 12:45:56;;;;;;;2.47;0.88;;;22.20;84.70;;;;;;4992737;28;20037;-71
2023/07/21 12:48:21;;;;;;;2.15;0.75;;;22.10;84.90;;;;;;5009915;28;20033;-71
2023/07/21 12:50:47;;;;;;;2.90;0.73;;;22.10;85.20;;;;;;5010908;28;20048;-71
2023/07/21 12:53:13;;;;;;;1.23;0.40;;;22.10;85.50;;;;;;5003473;28;20046;-70